createdAt,value
2019-05-28T00:02:14.679Z,65.30
2019-05-28T00:04:47.153Z,65.50
2019-05-28T00:07:19.357Z,65.40
2019-05-28T00:09:51.567Z,65.50
2019-05-28T00:12:23.910Z,65.60
2019-05-28T00:14:56.212Z,65.60
2019-05-28T00:17:28.407Z,65.70
2019-05-28T00:20:00.647Z,65.70
2019-05-28T00:22:32.846Z,65.70
2019-05-28T00:25:05.258Z,65.70
2019-05-28T00:27:37.573Z,65.70
2019-05-28T00:30:19.719Z,65.70
2019-05-28T00:32:44.351Z,65.70
2019-05-28T00:35:16.595Z,65.80
2019-05-28T00:37:48.876Z,66.00
2019-05-28T00:40:21.237Z,65.80
2019-05-28T00:42:53.801Z,66.00
2019-05-28T00:45:26.359Z,66.00
2019-05-28T00:47:58.555Z,66.00
2019-05-28T00:50:30.791Z,66.00
2019-05-28T00:53:02.997Z,66.00
2019-05-28T00:55:35.237Z,65.70
2019-05-28T00:58:07.526Z,65.80
2019-05-28T01:00:48.236Z,65.80
2019-05-28T01:03:21.540Z,65.80
2019-05-28T01:05:53.833Z,65.90
2019-05-28T01:08:26.136Z,65.80
2019-05-28T01:10:58.432Z,65.60
2019-05-28T01:13:30.800Z,65.80
2019-05-28T01:16:03.021Z,66.00
2019-05-28T01:18:35.370Z,66.00
2019-05-28T01:21:07.598Z,66.00
2019-05-28T01:23:39.989Z,65.90
2019-05-28T01:26:12.232Z,65.90
2019-05-28T01:28:44.489Z,66.00
2019-05-28T01:31:16.783Z,66.00
2019-05-28T01:33:48.988Z,66.00
2019-05-28T01:36:21.281Z,66.10
2019-05-28T01:38:53.479Z,66.00
2019-05-28T01:41:25.735Z,66.20
2019-05-28T01:43:57.905Z,66.00
2019-05-28T01:46:30.123Z,66.00
2019-05-28T01:49:02.416Z,66.00
2019-05-28T01:51:34.651Z,66.00
2019-05-28T01:54:06.859Z,66.10
2019-05-28T01:56:39.081Z,66.30
2019-05-28T01:59:11.280Z,66.10
2019-05-28T02:01:43.572Z,66.20
2019-05-28T02:04:15.766Z,66.20
2019-05-28T02:06:47.987Z,66.30
2019-05-28T02:09:20.265Z,66.40
2019-05-28T02:11:52.503Z,66.40
2019-05-28T02:14:24.768Z,67.30
2019-05-28T02:16:58.023Z,66.60
2019-05-28T02:19:30.305Z,66.40
2019-05-28T02:22:02.534Z,66.40
2019-05-28T02:24:34.808Z,66.40
2019-05-28T02:27:07.037Z,66.40
2019-05-28T02:29:39.239Z,66.40
2019-05-28T02:32:11.545Z,66.30
2019-05-28T02:34:43.838Z,66.20
2019-05-28T02:37:16.184Z,66.20
2019-05-28T02:39:48.485Z,66.20
2019-05-28T02:42:20.857Z,66.20
2019-05-28T02:44:53.061Z,66.10
2019-05-28T02:47:25.309Z,66.10
2019-05-28T02:49:57.568Z,66.20
2019-05-28T02:52:31.969Z,66.30
2019-05-28T02:55:05.519Z,66.30
2019-05-28T02:57:38.985Z,66.20
2019-05-28T03:00:13.437Z,66.30
2019-05-28T03:02:48.256Z,66.40
2019-05-28T03:05:20.540Z,66.40
2019-05-28T03:07:55.670Z,66.40
2019-05-28T03:10:59.887Z,66.40
2019-05-28T03:13:10.960Z,66.40
2019-05-28T03:15:44.897Z,66.40
2019-05-28T03:18:17.201Z,66.60
2019-05-28T03:20:49.413Z,66.40
2019-05-28T03:23:21.725Z,66.40
2019-05-28T03:25:54.011Z,66.40
2019-05-28T03:28:26.474Z,66.40
2019-05-28T03:30:58.693Z,66.50
2019-05-28T03:33:30.920Z,66.60
2019-05-28T03:36:03.315Z,66.40
2019-05-28T03:38:35.649Z,66.60
2019-05-28T03:41:08.005Z,66.70
2019-05-28T03:43:40.328Z,66.70
2019-05-28T03:46:12.614Z,66.70
2019-05-28T03:48:44.934Z,66.80
2019-05-28T03:51:17.208Z,66.70
2019-05-28T03:53:49.515Z,66.80
2019-05-28T03:56:33.089Z,66.80
2019-05-28T03:59:05.456Z,66.50
2019-05-28T04:01:37.687Z,66.30
2019-05-28T04:04:09.894Z,66.30
2019-05-28T04:06:42.081Z,66.40
2019-05-28T04:09:15.528Z,66.30
2019-05-28T04:11:49.893Z,66.30
2019-05-28T04:14:22.869Z,66.40
2019-05-28T04:16:55.699Z,66.40
2019-05-28T04:19:28.646Z,66.40
2019-05-28T04:22:01.313Z,66.40
2019-05-28T04:24:33.530Z,66.30
2019-05-28T04:27:05.884Z,66.60
2019-05-28T04:29:38.350Z,66.70
2019-05-28T04:32:10.553Z,66.60
2019-05-28T04:34:42.784Z,66.70
2019-05-28T04:37:14.995Z,66.80
2019-05-28T04:39:47.209Z,66.60
2019-05-28T04:42:19.401Z,66.70
2019-05-28T04:44:51.662Z,66.70
2019-05-28T04:47:25.918Z,66.80
2019-05-28T04:49:58.380Z,66.80
2019-05-28T04:52:30.981Z,67.00
2019-05-28T04:55:03.234Z,66.90
2019-05-28T04:57:35.429Z,66.80
2019-05-28T05:00:08.141Z,66.90
2019-05-28T05:02:57.850Z,66.80
2019-05-28T05:05:16.179Z,66.80
2019-05-28T05:07:50.487Z,66.80
2019-05-28T05:10:22.681Z,67.00
2019-05-28T05:12:54.870Z,67.00
2019-05-28T05:15:28.139Z,67.10
2019-05-28T05:18:00.424Z,67.00
2019-05-28T05:20:36.766Z,67.10
2019-05-28T05:23:23.611Z,67.10
2019-05-28T05:25:56.643Z,67.10
2019-05-28T05:28:29.865Z,67.10
2019-05-28T05:31:02.470Z,67.10
2019-05-28T05:33:34.884Z,67.20
2019-05-28T05:36:07.656Z,67.20
2019-05-28T05:38:40.353Z,67.10
2019-05-28T05:41:13.182Z,67.20
2019-05-28T05:43:45.570Z,67.40
2019-05-28T05:46:18.980Z,67.20
2019-05-28T05:48:57.530Z,67.20
2019-05-28T05:51:34.278Z,67.20
2019-05-28T05:54:08.690Z,67.40
2019-05-28T05:56:47.113Z,67.40
2019-05-28T05:59:25.446Z,67.40
2019-05-28T06:01:57.795Z,67.40
2019-05-28T06:04:29.985Z,67.40
2019-05-28T06:07:03.462Z,67.40
2019-05-28T06:09:35.720Z,67.20
2019-05-28T06:12:08.005Z,67.30
2019-05-28T06:14:40.191Z,67.20
2019-05-28T06:17:16.831Z,67.20
2019-05-28T06:19:49.967Z,67.40
2019-05-28T06:22:23.323Z,67.30
2019-05-28T06:24:56.375Z,67.40
2019-05-28T06:27:30.531Z,67.50
2019-05-28T06:30:03.637Z,67.50
2019-05-28T06:32:38.096Z,67.50
2019-05-28T06:35:11.549Z,67.50
2019-05-28T06:37:44.594Z,67.20
2019-05-28T06:40:18.254Z,67.30
2019-05-28T06:42:51.355Z,67.30
2019-05-28T06:45:25.363Z,67.20
2019-05-28T06:48:00.014Z,66.80
2019-05-28T06:50:36.342Z,66.80
2019-05-28T06:53:09.685Z,67.00
2019-05-28T06:55:42.881Z,67.00
2019-05-28T06:58:16.071Z,67.00
2019-05-28T07:00:49.469Z,67.10
2019-05-28T07:03:23.163Z,67.20
2019-05-28T07:06:07.110Z,67.30
2019-05-28T07:08:35.447Z,67.10
2019-05-28T07:11:08.700Z,67.20
2019-05-28T07:13:42.042Z,67.20
2019-05-28T07:16:16.651Z,67.20
2019-05-28T07:18:57.305Z,67.10
2019-05-28T07:21:48.012Z,67.10
2019-05-28T07:24:21.239Z,67.20
2019-05-28T07:26:54.454Z,67.30
2019-05-28T07:29:27.512Z,67.20
2019-05-28T07:32:14.475Z,67.30
2019-05-28T07:35:11.661Z,67.50
2019-05-28T07:37:52.872Z,67.50
2019-05-28T07:40:31.445Z,68.30
2019-05-28T07:43:04.869Z,68.00
2019-05-28T07:46:04.637Z,67.90
2019-05-28T07:48:39.419Z,67.90
2019-05-28T07:51:12.601Z,67.90
2019-05-28T07:53:45.735Z,68.00
2019-05-28T07:56:18.316Z,67.90
2019-05-28T07:58:50.555Z,67.90
2019-05-28T08:01:22.789Z,67.90
2019-05-28T08:03:55.062Z,67.90
2019-05-28T08:06:28.322Z,67.90
2019-05-28T08:09:00.615Z,67.90
2019-05-28T08:11:32.921Z,68.00
2019-05-28T08:14:05.218Z,68.00
2019-05-28T08:16:51.716Z,68.10
2019-05-28T08:19:11.409Z,68.20
2019-05-28T08:21:43.662Z,68.20
2019-05-28T08:24:15.962Z,68.10
2019-05-28T08:26:48.181Z,68.20
2019-05-28T08:29:20.358Z,68.20
2019-05-28T08:31:54.991Z,68.20
2019-05-28T08:34:28.274Z,68.20
2019-05-28T08:37:05.672Z,68.30
2019-05-28T08:39:34.424Z,68.30
2019-05-28T08:42:08.396Z,68.10
2019-05-28T08:44:40.598Z,68.30
2019-05-28T08:47:12.919Z,68.30
2019-05-28T08:49:45.282Z,68.30
2019-05-28T08:52:17.605Z,68.40
2019-05-28T08:54:51.226Z,68.50
2019-05-28T08:57:23.818Z,68.50
2019-05-28T08:59:56.122Z,68.60
2019-05-28T09:02:29.034Z,68.60
2019-05-28T09:05:01.329Z,68.40
2019-05-28T09:07:33.665Z,68.20
2019-05-28T09:10:06.872Z,68.10
2019-05-28T09:12:39.172Z,68.10
2019-05-28T09:15:11.365Z,68.20
2019-05-28T09:17:43.578Z,68.30
2019-05-28T09:20:15.851Z,68.30
2019-05-28T09:22:48.072Z,68.40
2019-05-28T09:25:22.872Z,68.60
2019-05-28T09:27:55.317Z,68.50
2019-05-28T09:30:27.689Z,68.60
2019-05-28T09:32:59.947Z,68.60
2019-05-28T09:35:44.089Z,69.10
2019-05-28T09:38:06.249Z,68.70
2019-05-28T09:40:50.096Z,68.60
2019-05-28T09:43:12.460Z,68.70
2019-05-28T09:45:44.672Z,68.60
2019-05-28T09:48:17.131Z,68.60
2019-05-28T09:50:51.857Z,68.40
2019-05-28T09:53:23.344Z,68.30
2019-05-28T09:55:56.677Z,68.40
2019-05-28T09:58:28.944Z,68.40
2019-05-28T10:01:01.514Z,68.30
2019-05-28T10:03:33.723Z,68.30
2019-05-28T10:06:17.171Z,68.50
2019-05-28T10:08:43.054Z,68.30
2019-05-28T10:11:15.226Z,68.20
2019-05-28T10:13:47.499Z,68.60
2019-05-28T10:16:19.696Z,68.60
2019-05-28T10:18:51.939Z,68.40
2019-05-28T10:21:24.140Z,68.50
2019-05-28T10:23:56.345Z,68.70
2019-05-28T10:26:28.530Z,68.50
2019-05-28T10:29:00.743Z,68.40
2019-05-28T10:31:32.928Z,68.60
2019-05-28T10:34:05.139Z,68.60
2019-05-28T10:36:38.145Z,68.70
2019-05-28T10:39:10.557Z,68.60
2019-05-28T10:41:42.748Z,68.80
2019-05-28T10:44:14.962Z,68.70
2019-05-28T10:46:47.176Z,68.70
2019-05-28T10:49:19.420Z,68.60
2019-05-28T10:51:51.585Z,68.60
2019-05-28T10:54:23.797Z,68.50
2019-05-28T10:56:56.138Z,68.40
2019-05-28T10:59:28.505Z,68.40
2019-05-28T11:02:00.944Z,68.50
2019-05-28T11:04:33.327Z,68.50
2019-05-28T11:07:05.979Z,68.80
2019-05-28T11:09:38.275Z,68.80
2019-05-28T11:12:12.851Z,68.80
2019-05-28T11:14:45.346Z,68.30
2019-05-28T11:17:18.581Z,68.00
2019-05-28T11:19:51.897Z,68.40
2019-05-28T11:22:24.587Z,68.20
2019-05-28T11:24:57.698Z,68.00
2019-05-28T11:27:30.873Z,68.10
2019-05-28T11:30:03.220Z,68.00
2019-05-28T11:32:35.725Z,68.00
2019-05-28T11:35:08.489Z,68.00
2019-05-28T11:37:40.772Z,67.70
2019-05-28T11:40:13.368Z,67.30
2019-05-28T11:42:45.654Z,67.00
2019-05-28T11:45:18.675Z,66.10
2019-05-28T11:47:52.036Z,66.20
2019-05-28T11:50:24.323Z,66.40
2019-05-28T11:52:56.518Z,66.30
2019-05-28T11:55:28.723Z,66.70
2019-05-28T11:58:00.915Z,66.40
2019-05-28T12:00:33.135Z,66.40
2019-05-28T12:03:05.322Z,66.60
2019-05-28T12:05:37.532Z,65.90
2019-05-28T12:08:09.720Z,65.80
2019-05-28T12:10:41.936Z,65.30
2019-05-28T12:13:14.138Z,65.00
2019-05-28T12:15:47.330Z,65.60
2019-05-28T12:18:21.078Z,65.90
2019-05-28T12:20:53.317Z,66.40
2019-05-28T12:23:25.525Z,66.10
2019-05-28T12:25:57.742Z,66.30
2019-05-28T12:28:37.645Z,66.40
2019-05-28T12:31:03.888Z,66.10
2019-05-28T12:33:36.072Z,66.30
2019-05-28T12:36:09.805Z,66.50
2019-05-28T12:38:42.176Z,66.10
2019-05-28T12:41:14.402Z,65.90
2019-05-28T12:43:46.589Z,65.90
2019-05-28T12:46:18.796Z,65.80
2019-05-28T12:48:51.019Z,65.70
2019-05-28T12:51:23.228Z,65.20
2019-05-28T12:53:55.408Z,65.60
2019-05-28T12:56:27.786Z,65.20
2019-05-28T12:59:00.089Z,65.50
2019-05-28T13:01:32.304Z,65.00
2019-05-28T13:04:04.854Z,64.80
2019-05-28T13:06:37.229Z,64.70
2019-05-28T13:09:10.092Z,64.50
2019-05-28T13:11:42.301Z,64.60
2019-05-28T13:14:14.492Z,64.70
2019-05-28T13:16:46.919Z,64.50
2019-05-28T13:19:19.401Z,64.10
2019-05-28T13:21:51.793Z,64.20
2019-05-28T13:24:24.189Z,63.20
2019-05-28T13:26:56.531Z,62.90
2019-05-28T13:32:33.880Z,61.90
2019-05-28T13:35:10.942Z,61.80
2019-05-28T13:37:43.693Z,61.60
2019-05-28T13:40:18.069Z,61.20
2019-05-28T13:42:50.892Z,60.20
2019-05-28T13:45:23.639Z,60.70
2019-05-28T13:47:56.559Z,60.50
2019-05-28T13:50:32.693Z,60.40
2019-05-28T13:53:05.464Z,60.40
2019-05-28T13:55:51.314Z,59.80
2019-05-28T14:24:27.437Z,60.70
2019-05-28T14:27:00.083Z,60.90
2019-05-28T14:29:32.720Z,60.20
2019-05-28T14:32:05.173Z,60.10
2019-05-28T14:34:45.817Z,60.40
2019-05-28T14:37:19.462Z,60.20
2019-05-28T14:39:52.637Z,59.90
2019-05-28T14:42:25.936Z,59.90
2019-05-28T14:44:59.018Z,59.90
2019-05-28T14:47:35.867Z,60.00
2019-05-28T14:50:10.650Z,60.30
2019-05-28T14:52:43.722Z,60.70
2019-05-28T14:55:17.578Z,60.60
2019-05-28T14:57:50.822Z,59.40
2019-05-28T15:00:24.869Z,59.60
2019-05-28T15:02:59.212Z,59.80
2019-05-28T15:05:35.217Z,59.50
2019-05-28T15:08:08.284Z,59.20
2019-05-28T15:10:41.322Z,58.60
2019-05-28T15:13:14.321Z,58.60
2019-05-28T15:15:58.874Z,58.80
2019-05-28T15:18:37.897Z,58.40
2019-05-28T15:21:12.331Z,59.30
2019-05-28T15:23:45.279Z,58.40
2019-05-28T15:26:18.430Z,58.80
2019-05-28T15:28:52.692Z,58.80
2019-05-28T15:31:27.144Z,59.10
2019-05-28T15:33:59.689Z,58.80
2019-05-28T15:36:32.207Z,58.90
2019-05-28T15:39:05.844Z,59.00
2019-05-28T15:41:38.585Z,58.90
2019-05-28T15:44:12.176Z,59.00
2019-05-28T15:46:44.786Z,58.80
2019-05-28T15:49:17.289Z,58.70
2019-05-28T15:52:06.712Z,58.70
2019-05-28T15:54:39.456Z,58.30
2019-05-28T15:57:14.709Z,58.00
2019-05-28T15:59:47.199Z,58.00
2019-05-28T16:02:19.698Z,58.10
2019-05-28T16:04:52.174Z,58.50
2019-05-28T16:07:24.656Z,58.10
2019-05-28T16:09:57.263Z,58.10
2019-05-28T16:12:30.743Z,57.80
2019-05-28T16:15:05.555Z,58.00
2019-05-28T16:17:38.227Z,58.20
2019-05-28T16:20:10.849Z,58.50
2019-05-28T16:22:58.462Z,57.90
2019-05-28T16:25:30.989Z,57.50
2019-05-28T16:28:03.602Z,57.80
2019-05-28T16:30:36.167Z,57.60
2019-05-28T16:33:08.972Z,57.40
2019-05-28T16:35:41.583Z,57.30
2019-05-28T16:38:17.280Z,57.20
2019-05-28T16:40:49.748Z,57.30
2019-05-28T16:43:22.261Z,56.60
2019-05-28T16:45:54.728Z,56.70
2019-05-28T16:48:27.220Z,56.30
2019-05-28T16:50:59.801Z,56.60
2019-05-28T16:53:32.280Z,56.90
2019-05-28T16:56:04.830Z,56.50
2019-05-28T16:58:37.301Z,56.90
2019-05-28T17:01:21.968Z,57.00
2019-05-28T17:03:44.063Z,56.60
2019-05-28T17:06:16.733Z,56.90
2019-05-28T17:08:49.222Z,56.50
2019-05-28T17:11:21.775Z,56.80
2019-05-28T17:13:54.434Z,57.00
2019-05-28T17:16:26.888Z,57.00
2019-05-28T17:18:59.381Z,57.40
2019-05-28T17:21:31.923Z,57.00
2019-05-28T17:24:04.343Z,56.90
2019-05-28T17:26:36.905Z,56.90
2019-05-28T17:29:09.419Z,56.80
2019-05-28T17:31:42.138Z,56.50
2019-05-28T17:34:14.617Z,56.10
2019-05-28T17:36:47.096Z,56.50
2019-05-28T17:39:19.587Z,56.90
2019-05-28T17:41:52.130Z,57.00
2019-05-28T17:44:24.706Z,57.10
2019-05-28T17:46:57.174Z,57.60
2019-05-28T17:49:29.690Z,57.40
2019-05-28T17:52:02.145Z,57.70
2019-05-28T17:54:34.631Z,57.50
2019-05-28T17:57:07.096Z,57.60
2019-05-28T17:59:39.599Z,58.10
2019-05-28T18:02:12.102Z,58.10
2019-05-28T18:04:44.651Z,57.90
2019-05-28T18:07:24.926Z,58.30
2019-05-28T18:09:57.532Z,58.20
2019-05-28T18:12:29.994Z,57.90
2019-05-28T18:15:02.566Z,58.30
2019-05-28T18:17:35.151Z,58.40
2019-05-28T18:20:07.915Z,58.30
2019-05-28T18:22:40.400Z,58.10
2019-05-28T18:25:13.083Z,57.60
2019-05-28T18:27:45.587Z,57.90
2019-05-28T18:30:18.101Z,57.30
2019-05-28T18:32:50.632Z,56.90
2019-05-28T18:35:23.205Z,57.10
2019-05-28T18:38:03.372Z,57.20
2019-05-28T18:40:29.945Z,57.60
2019-05-28T18:43:02.430Z,57.60
2019-05-28T18:45:34.955Z,57.70
2019-05-28T18:48:07.452Z,57.70
2019-05-28T18:50:39.991Z,57.80
2019-05-28T18:53:12.537Z,57.90
2019-05-28T18:55:45.092Z,58.10
2019-05-28T18:58:18.702Z,58.10
2019-05-28T19:00:51.481Z,58.20
2019-05-28T19:03:24.030Z,58.10
2019-05-28T19:05:56.576Z,58.10
2019-05-28T19:12:52.464Z,57.90
2019-05-28T19:16:46.701Z,57.60
2019-05-28T19:19:36.163Z,58.00
2019-05-28T19:22:11.803Z,58.30
2019-05-28T21:54:06.955Z,60.30
2019-05-28T22:23:35.840Z,60.00
2019-05-28T22:31:36.897Z,60.30
2019-05-28T22:59:46.654Z,60.80
2019-05-28T23:14:21.873Z,60.70
2019-05-28T23:16:55.159Z,60.30
2019-05-28T23:19:28.125Z,60.50
2019-05-28T23:22:00.988Z,60.70
2019-05-28T23:24:35.363Z,61.00
2019-05-28T23:27:09.535Z,60.90
2019-05-28T23:29:42.833Z,60.90
2019-05-28T23:32:15.739Z,60.70
2019-05-28T23:34:48.544Z,60.60
2019-05-28T23:37:21.455Z,60.70
2019-05-28T23:39:54.501Z,60.60
2019-05-28T23:42:27.417Z,60.70
2019-05-28T23:45:00.522Z,61.40
2019-05-28T23:47:33.593Z,60.80
2019-05-28T23:50:08.371Z,60.70
2019-05-28T23:52:41.809Z,60.90
2019-05-28T23:55:14.798Z,60.60
2019-05-28T23:57:47.926Z,60.60
